Terminal Aerodrome Forecast
Issued by NWS Shreveport, LA

Home | Current Version | Previous Version | Text Only | Print | Product List | Glossary On
Versions: 1 2 3 4 5 6 7 8 9 10 11 12 13 14 15 16 17
269
FTUS44 KSHV 242055 AAA
TAFELD
TAF AMD
KELD 242055Z 2421/2518 VRB03KT P6SM VCTS BKN050CB
     FM250000 00000KT P6SM SCT150 BKN250
     FM251500 VRB04KT P6SM SCT040=

USA.gov is the U.S. government's official web portal to all federal, state and local government web resources and services.